Time;durP1;ratioP1;P1;durP2;ratioP2;P2;SDS_P1;SDS_P2;PMS_P1;PMS_P2;Temp;Humidity;BMP_temperature;BMP_pressure;BME280_temperature;BME280_humidity;BME280_pressure;Samples;Min_cycle;Max_cycle;Signal;HPM_P1;HPM_P2
2022/04/01 00:01:09;;;;;;;4.65;2.42;;;;;;;;;;5114422;28;20546;-59
2022/04/01 00:03:35;;;;;;;5.53;2.72;;;;;;;;;;5114213;28;20035;-59
2022/04/01 00:06:01;;;;;;;3.78;2.10;;;;;;;;;;5113525;28;20496;-59
2022/04/01 00:08:27;;;;;;;3.22;1.95;;;;;;;;;;5113892;28;20118;-59
2022/04/01 00:10:53;;;;;;;4.10;2.20;;;;;;;;;;5113727;28;20035;-59
2022/04/01 00:13:19;;;;;;;2.50;2.20;;;;;;;;;;5107504;27;20450;-60
2022/04/01 00:15:45;;;;;;;3.45;2.67;;;;;;;;;;5109690;28;20042;-60
2022/04/01 00:18:12;;;;;;;6.07;2.35;;;;;;;;;;5110301;27;20511;-60
2022/04/01 00:20:38;;;;;;;4.07;2.60;;;;;;;;;;5090738;28;20036;-60
2022/04/01 00:23:04;;;;;;;4.13;2.45;;;;;;;;;;5113268;28;20035;-60
2022/04/01 00:25:30;;;;;;;2.53;1.90;;;;;;;;;;5109339;27;20047;-60
2022/04/01 00:27:56;;;;;;;2.97;2.22;;;;;;;;;;5113093;28;20164;-60
2022/04/01 00:30:22;;;;;;;3.05;1.77;;;;;;;;;;5113743;28;20035;-59
2022/04/01 00:32:48;;;;;;;2.65;2.00;;;;;;;;;;5112715;28;20039;-60
2022/04/01 00:35:14;;;;;;;4.15;2.20;;;;;;;;;;5111069;28;20035;-60
2022/04/01 00:37:40;;;;;;;2.55;1.50;;;;;;;;;;5095136;28;20067;-60
2022/04/01 00:40:09;;;;;;;3.67;2.00;;;;;;;;;;5095398;28;20071;-60
2022/04/01 00:42:35;;;;;;;3.92;2.17;;;;;;;;;;5113535;28;20069;-60
2022/04/01 00:45:01;;;;;;;4.60;1.90;;;;;;;;;;5113299;28;20031;-60
2022/04/01 00:47:27;;;;;;;3.30;1.80;;;;;;;;;;5112866;28;20047;-60
2022/04/01 00:49:55;;;;;;;3.23;2.20;;;;;;;;;;5112104;28;20040;-59
2022/04/01 00:52:24;;;;;;;4.20;2.05;;;;;;;;;;5113361;28;20123;-60
2022/04/01 00:54:51;;;;;;;3.87;2.10;;;;;;;;;;5111712;27;20503;-60
2022/04/01 00:57:18;;;;;;;2.00;1.50;;;;;;;;;;5093807;28;20055;-60
2022/04/01 00:59:44;;;;;;;2.27;1.87;;;;;;;;;;5108095;28;20043;-60
2022/04/01 01:02:10;;;;;;;2.78;1.75;;;;;;;;;;5113418;28;20554;-59
2022/04/01 01:04:38;;;;;;;2.70;1.87;;;;;;;;;;5113030;28;20501;-59
2022/04/01 01:07:05;;;;;;;9.60;1.90;;;;;;;;;;5094887;28;20048;-59
2022/04/01 01:09:31;;;;;;;2.60;1.90;;;;;;;;;;5090339;28;20036;-59
2022/04/01 01:11:57;;;;;;;7.17;2.30;;;;;;;;;;5111496;28;20425;-59
2022/04/01 01:14:26;;;;;;;4.60;1.80;;;;;;;;;;5112889;28;20047;-59
2022/04/01 01:16:52;;;;;;;3.33;1.87;;;;;;;;;;5112123;28;20040;-59
2022/04/01 01:19:18;;;;;;;4.97;2.00;;;;;;;;;;5102061;28;20032;-59
2022/04/01 01:21:49;;;;;;;2.00;1.80;;;;;;;;;;5100237;28;20035;-59
2022/04/01 01:24:15;;;;;;;1.77;1.42;;;;;;;;;;5112526;28;20043;-61
2022/04/01 01:26:44;;;;;;;2.67;1.80;;;;;;;;;;5111312;28;20036;-59
2022/04/01 01:29:11;;;;;;;3.67;1.97;;;;;;;;;;5112243;28;20056;-58
2022/04/01 01:31:37;;;;;;;2.50;1.63;;;;;;;;;;5094368;28;20439;-59
2022/04/01 01:34:04;;;;;;;2.73;1.70;;;;;;;;;;5112508;28;20485;-59
2022/04/01 01:36:30;;;;;;;2.33;1.83;;;;;;;;;;5106820;28;20035;-60
2022/04/01 01:38:57;;;;;;;4.17;1.93;;;;;;;;;;5108492;28;20036;-59
2022/04/01 01:41:24;;;;;;;3.63;1.93;;;;;;;;;;5109526;28;20039;-60
2022/04/01 01:43:50;;;;;;;3.30;1.70;;;;;;;;;;5108605;28;20054;-60
2022/04/01 01:46:16;;;;;;;3.50;1.87;;;;;;;;;;5109226;28;20508;-60
2022/04/01 01:48:42;;;;;;;2.88;1.75;;;;;;;;;;5088584;28;20058;-60
2022/04/01 01:56:39;;;;;;;3.17;2.07;;;;;;;;;;5106826;27;20408;-59
2022/04/01 01:59:05;;;;;;;2.30;2.10;;;;;;;;;;5110847;27;20096;-59
2022/04/01 02:01:32;;;;;;;2.17;1.97;;;;;;;;;;5107334;28;20039;-60
2022/04/01 02:04:00;;;;;;;3.60;1.70;;;;;;;;;;5091708;28;20118;-59
2022/04/01 02:06:26;;;;;;;3.40;2.00;;;;;;;;;;5105301;28;20569;-59
2022/04/01 02:08:54;;;;;;;3.83;2.30;;;;;;;;;;5093729;28;20127;-59
2022/04/01 02:11:20;;;;;;;4.33;2.17;;;;;;;;;;5111692;28;20039;-59
2022/04/01 02:13:46;;;;;;;3.13;2.07;;;;;;;;;;5112042;28;20413;-59
2022/04/01 02:16:12;;;;;;;2.70;1.77;;;;;;;;;;5118061;27;20039;-59
2022/04/01 02:18:38;;;;;;;4.40;2.20;;;;;;;;;;5107759;27;20039;-59
2022/04/01 02:21:10;;;;;;;4.10;2.00;;;;;;;;;;5108365;28;20043;-59
2022/04/01 02:23:36;;;;;;;4.27;2.03;;;;;;;;;;5111434;28;20493;-59
2022/04/01 02:26:02;;;;;;;2.85;2.03;;;;;;;;;;5110657;28;20084;-59
2022/04/01 02:28:28;;;;;;;2.30;1.80;;;;;;;;;;5102970;28;20423;-59
2022/04/01 02:30:54;;;;;;;3.00;1.80;;;;;;;;;;5110665;28;20036;-59
2022/04/01 02:33:20;;;;;;;2.90;1.97;;;;;;;;;;5110910;28;20039;-59
2022/04/01 02:35:47;;;;;;;3.77;1.80;;;;;;;;;;5111127;28;20111;-59
2022/04/01 02:38:14;;;;;;;5.93;3.20;;;;;;;;;;5111137;28;20558;-59
2022/04/01 02:40:40;;;;;;;4.63;1.70;;;;;;;;;;5110498;28;20087;-59
2022/04/01 02:43:06;;;;;;;5.43;2.10;;;;;;;;;;5109044;28;20127;-59
2022/04/01 02:45:32;;;;;;;1.73;1.42;;;;;;;;;;5110296;28;20114;-59
2022/04/01 02:47:58;;;;;;;3.43;1.80;;;;;;;;;;5110249;28;20040;-59
2022/04/01 02:50:26;;;;;;;2.33;1.67;;;;;;;;;;5111388;28;20435;-59
2022/04/01 02:52:52;;;;;;;2.83;2.05;;;;;;;;;;5111371;28;20047;-59
2022/04/01 02:55:18;;;;;;;6.22;1.63;;;;;;;;;;5113284;28;20035;-59
2022/04/01 02:57:44;;;;;;;3.33;1.90;;;;;;;;;;5111562;28;20535;-59
2022/04/01 03:00:10;;;;;;;2.40;1.80;;;;;;;;;;5111340;28;20048;-59
2022/04/01 03:02:38;;;;;;;3.72;2.08;;;;;;;;;;5111496;28;20027;-59
2022/04/01 03:05:05;;;;;;;2.57;1.70;;;;;;;;;;5111394;28;20042;-59
2022/04/01 03:07:31;;;;;;;2.37;2.00;;;;;;;;;;5112285;28;20057;-59
2022/04/01 03:09:57;;;;;;;3.73;1.80;;;;;;;;;;5111118;28;20122;-59
2022/04/01 03:12:23;;;;;;;3.53;1.53;;;;;;;;;;5113940;28;20047;-59
2022/04/01 03:14:49;;;;;;;2.10;1.20;;;;;;;;;;5115563;28;20082;-59
2022/04/01 03:17:15;;;;;;;2.42;1.50;;;;;;;;;;5114785;28;20034;-59
2022/04/01 03:19:41;;;;;;;3.03;1.60;;;;;;;;;;5113597;28;20118;-59
2022/04/01 03:22:07;;;;;;;4.40;1.63;;;;;;;;;;5115437;27;20109;-59
2022/04/01 03:24:35;;;;;;;2.97;1.98;;;;;;;;;;5115495;28;20067;-59
2022/04/01 03:27:01;;;;;;;2.67;2.20;;;;;;;;;;5115098;28;20038;-59
2022/04/01 03:29:28;;;;;;;3.73;1.97;;;;;;;;;;5097577;27;20865;-59
2022/04/01 03:31:55;;;;;;;5.43;1.80;;;;;;;;;;5115014;28;20042;-59
2022/04/01 03:34:22;;;;;;;1.80;1.48;;;;;;;;;;5119472;27;20113;-59
2022/04/01 03:36:48;;;;;;;3.37;1.70;;;;;;;;;;5114828;28;20035;-59
2022/04/01 03:39:14;;;;;;;3.83;1.70;;;;;;;;;;5114540;28;20039;-58
2022/04/01 03:41:40;;;;;;;2.07;1.83;;;;;;;;;;5115332;28;20144;-59
2022/04/01 03:44:06;;;;;;;2.03;1.65;;;;;;;;;;5116043;27;20108;-59
2022/04/01 03:46:45;;;;;;;4.10;1.75;;;;;;;;;;5118715;27;20035;-59
2022/04/01 03:49:12;;;;;;;4.38;1.75;;;;;;;;;;5113186;27;20039;-59
2022/04/01 03:51:39;;;;;;;2.70;1.80;;;;;;;;;;5114759;28;20525;-59
2022/04/01 03:54:05;;;;;;;4.45;1.50;;;;;;;;;;5114962;28;20047;-59
2022/04/01 03:56:34;;;;;;;6.70;2.15;;;;;;;;;;5124357;27;20039;-59
2022/04/01 03:59:01;;;;;;;3.40;1.88;;;;;;;;;;5114061;28;20433;-59
2022/04/01 04:01:28;;;;;;;3.10;1.60;;;;;;;;;;5093512;28;20119;-60
2022/04/01 04:03:58;;;;;;;2.33;1.60;;;;;;;;;;5109027;28;20119;-60
2022/04/01 04:06:24;;;;;;;3.78;1.80;;;;;;;;;;5111855;28;20055;-60
2022/04/01 04:08:55;;;;;;;3.13;1.60;;;;;;;;;;5113869;28;20042;-60
2022/04/01 04:11:23;;;;;;;3.97;1.93;;;;;;;;;;5114468;28;20079;-60
2022/04/01 04:13:51;;;;;;;2.85;1.98;;;;;;;;;;5113467;28;20286;-60
2022/04/01 04:16:21;;;;;;;4.82;1.85;;;;;;;;;;5114066;28;20052;-59
2022/04/01 04:18:52;;;;;;;3.95;2.15;;;;;;;;;;5112541;27;20089;-59
2022/04/01 04:21:18;;;;;;;;;;;;;;;;;;5114253;28;20080;-59
2022/04/01 04:23:46;;;;;;;1.60;1.50;;;;;;;;;;5095075;28;19923;-59
2022/04/01 04:26:13;;;;;;;2.28;1.85;;;;;;;;;;5113422;28;20040;-59
2022/04/01 04:28:40;;;;;;;2.45;2.22;;;;;;;;;;5113508;28;20092;-59
2022/04/01 04:31:08;;;;;;;3.33;1.85;;;;;;;;;;5113193;27;20054;-59
2022/04/01 04:33:37;;;;;;;3.25;1.65;;;;;;;;;;5113859;28;20031;-59
2022/04/01 04:36:04;;;;;;;4.60;1.73;;;;;;;;;;5112673;27;20043;-59
2022/04/01 04:38:40;;;;;;;3.33;2.10;;;;;;;;;;5101369;28;20089;-60
2022/04/01 04:41:10;;;;;;;2.10;1.33;;;;;;;;;;5103965;28;20032;-59
2022/04/01 04:43:38;;;;;;;1.30;1.20;;;;;;;;;;5113826;28;20047;-59
2022/04/01 04:46:05;;;;;;;2.75;1.70;;;;;;;;;;5112798;28;20040;-60
2022/04/01 04:48:32;;;;;;;2.45;1.75;;;;;;;;;;5112985;28;20038;-59
2022/04/01 04:50:59;;;;;;;2.13;1.73;;;;;;;;;;5113281;28;20039;-60
2022/04/01 04:53:28;;;;;;;2.30;1.52;;;;;;;;;;5113187;28;20047;-60
2022/04/01 04:55:54;;;;;;;3.47;1.85;;;;;;;;;;5112941;28;20044;-60
2022/04/01 04:58:21;;;;;;;5.30;1.60;;;;;;;;;;5113300;28;20036;-59
2022/04/01 05:00:53;;;;;;;3.20;1.58;;;;;;;;;;5111149;27;20042;-60
2022/04/01 05:03:44;;;;;;;5.45;2.22;;;;;;;;;;5112937;28;20050;-59
2022/04/01 05:06:12;;;;;;;3.65;2.08;;;;;;;;;;5113088;28;20039;-59
2022/04/01 05:08:51;;;;;;;4.85;1.95;;;;;;;;;;5113015;28;20121;-59
2022/04/01 05:11:19;;;;;;;4.07;1.75;;;;;;;;;;5113241;28;20478;-59
2022/04/01 05:13:48;;;;;;;3.03;2.33;;;;;;;;;;5113234;28;20075;-60
2022/04/01 05:16:25;;;;;;;3.03;1.80;;;;;;;;;;5109598;28;20120;-59
2022/04/01 05:18:57;;;;;;;3.03;1.85;;;;;;;;;;5107961;28;20048;-59
2022/04/01 05:21:24;;;;;;;2.85;2.33;;;;;;;;;;5112517;28;20096;-59
2022/04/01 05:23:55;;;;;;;2.30;1.90;;;;;;;;;;5113034;28;20111;-59
2022/04/01 05:26:22;;;;;;;;;;;;;;;;;;5113536;28;20092;-59
2022/04/01 05:28:52;;;;;;;5.60;2.20;;;;;;;;;;5112513;28;19998;-59
2022/04/01 05:31:45;;;;;;;3.92;1.85;;;;;;;;;;5092769;28;20124;-59
2022/04/01 05:34:26;;;;;;;3.22;2.13;;;;;;;;;;5111246;28;20067;-59
2022/04/01 05:36:53;;;;;;;3.28;2.05;;;;;;;;;;5108596;28;20519;-59
2022/04/01 05:39:20;;;;;;;3.05;1.83;;;;;;;;;;5109354;28;20040;-59
2022/04/01 05:41:46;;;;;;;2.88;1.92;;;;;;;;;;5111268;28;20118;-60
2022/04/01 05:44:13;;;;;;;2.95;2.00;;;;;;;;;;5108553;28;20136;-59
2022/04/01 05:46:40;;;;;;;4.05;1.90;;;;;;;;;;5112184;28;20044;-60
2022/04/01 05:49:06;;;;;;;2.85;1.42;;;;;;;;;;5110936;28;20035;-59
2022/04/01 05:51:33;;;;;;;2.15;1.50;;;;;;;;;;5110131;28;20023;-59
2022/04/01 05:54:00;;;;;;;4.80;2.17;;;;;;;;;;5108390;28;20443;-60
2022/04/01 05:56:27;;;;;;;2.58;1.63;;;;;;;;;;5105782;22;20059;-60
2022/04/01 05:58:53;;;;;;;5.32;1.80;;;;;;;;;;5098560;28;20032;-60
2022/04/01 06:01:22;;;;;;;3.45;1.80;;;;;;;;;;5084497;28;20422;-60
2022/04/01 06:04:05;;;;;;;3.63;1.90;;;;;;;;;;5074246;28;20036;-60
2022/04/01 06:06:41;;;;;;;2.42;1.77;;;;;;;;;;5083706;28;20397;-60
2022/04/01 06:09:24;;;;;;;3.20;2.05;;;;;;;;;;5077410;28;20421;-60
2022/04/01 06:11:58;;;;;;;2.75;1.85;;;;;;;;;;5079189;28;20042;-60
2022/04/01 06:14:33;;;;;;;2.63;1.73;;;;;;;;;;5084363;28;20505;-60
2022/04/01 06:17:12;;;;;;;3.35;1.75;;;;;;;;;;5083001;28;20520;-60
2022/04/01 06:19:38;;;;;;;3.45;1.50;;;;;;;;;;5075823;28;20494;-60
2022/04/01 06:22:05;;;;;;;3.00;1.45;;;;;;;;;;5079052;28;20032;-60
2022/04/01 06:24:55;;;;;;;2.13;1.30;;;;;;;;;;5075710;28;20040;-60
2022/04/01 06:27:44;;;;;;;1.27;1.13;;;;;;;;;;5073389;28;20095;-60
2022/04/01 06:30:11;;;;;;;2.75;1.15;;;;;;;;;;5084394;28;20058;-60
2022/04/01 06:32:46;;;;;;;4.18;1.00;;;;;;;;;;5079601;28;20036;-60
2022/04/01 06:35:19;;;;;;;3.35;1.02;;;;;;;;;;5077222;28;20058;-61
2022/04/01 06:37:50;;;;;;;1.10;1.00;;;;;;;;;;5086682;28;20040;-60
2022/04/01 06:40:18;;;;;;;1.17;0.80;;;;;;;;;;5085112;28;20383;-60
2022/04/01 06:42:45;;;;;;;3.20;0.93;;;;;;;;;;5085007;28;20042;-61
2022/04/01 06:45:13;;;;;;;3.83;0.95;;;;;;;;;;5082083;28;20040;-61
2022/04/01 06:47:40;;;;;;;0.98;0.82;;;;;;;;;;5089257;28;20032;-61
2022/04/01 06:50:06;;;;;;;3.08;0.95;;;;;;;;;;5087062;28;20469;-61
2022/04/01 06:52:32;;;;;;;1.13;0.80;;;;;;;;;;5093749;28;20485;-61
2022/04/01 06:54:58;;;;;;;2.17;1.15;;;;;;;;;;5091104;28;20047;-61
2022/04/01 06:57:24;;;;;;;3.75;1.65;;;;;;;;;;5086258;28;20028;-61
2022/04/01 06:59:51;;;;;;;1.38;1.02;;;;;;;;;;5078520;28;20501;-61
2022/04/01 07:02:17;;;;;;;2.33;1.00;;;;;;;;;;5089532;28;20119;-61
2022/04/01 07:04:43;;;;;;;2.15;1.15;;;;;;;;;;5087736;28;20112;-61
2022/04/01 07:07:09;;;;;;;2.08;1.15;;;;;;;;;;5090518;28;20047;-61
2022/04/01 07:09:36;;;;;;;1.83;1.02;;;;;;;;;;5059047;28;20036;-61
2022/04/01 07:12:02;;;;;;;3.95;1.45;;;;;;;;;;5089080;28;20038;-60
2022/04/01 07:14:31;;;;;;;3.22;1.67;;;;;;;;;;5084666;28;20085;-61
2022/04/01 07:16:57;;;;;;;3.28;1.23;;;;;;;;;;5089408;28;20051;-61
2022/04/01 07:19:23;;;;;;;1.70;1.38;;;;;;;;;;5076054;28;20064;-60
2022/04/01 07:21:49;;;;;;;3.92;1.67;;;;;;;;;;5086517;28;20489;-61
2022/04/01 07:24:15;;;;;;;1.85;1.27;;;;;;;;;;5104417;28;20036;-61
2022/04/01 07:26:41;;;;;;;3.15;1.33;;;;;;;;;;5103397;28;20035;-60
2022/04/01 07:29:07;;;;;;;5.40;1.52;;;;;;;;;;5102449;28;20036;-60
2022/04/01 07:34:26;;;;;;;1.65;1.48;;;;;;;;;;5100222;28;20040;-60
2022/04/01 07:36:52;;;;;;;4.35;1.50;;;;;;;;;;5094828;28;20536;-61
2022/04/01 07:39:18;;;;;;;3.22;1.58;;;;;;;;;;5077851;28;20039;-60
2022/04/01 07:41:44;;;;;;;1.67;1.40;;;;;;;;;;5103564;28;20032;-61
2022/04/01 07:44:10;;;;;;;2.55;1.65;;;;;;;;;;5096782;28;20477;-61
2022/04/01 07:46:36;;;;;;;2.17;1.10;;;;;;;;;;5089121;28;20127;-61
2022/04/01 07:49:02;;;;;;;2.22;1.42;;;;;;;;;;5095081;28;20965;-61
2022/04/01 07:51:28;;;;;;;1.55;1.40;;;;;;;;;;5086330;28;20040;-61
2022/04/01 07:53:54;;;;;;;2.30;1.65;;;;;;;;;;5091703;28;20428;-62
2022/04/01 07:56:20;;;;;;;2.60;1.95;;;;;;;;;;5081919;28;20115;-61
2022/04/01 07:58:46;;;;;;;2.15;1.70;;;;;;;;;;5088126;28;20035;-61
2022/04/01 08:01:12;;;;;;;2.72;1.60;;;;;;;;;;5093941;28;20079;-62
2022/04/01 08:03:41;;;;;;;1.75;1.50;;;;;;;;;;5092216;28;20078;-61
2022/04/01 08:06:07;;;;;;;4.05;1.73;;;;;;;;;;5094345;28;20048;-61
2022/04/01 08:08:33;;;;;;;3.28;1.70;;;;;;;;;;5094004;28;20085;-61
2022/04/01 08:11:00;;;;;;;4.15;1.90;;;;;;;;;;5092610;28;20532;-62
2022/04/01 08:13:26;;;;;;;2.80;1.73;;;;;;;;;;5088268;28;20036;-62
2022/04/01 08:15:52;;;;;;;4.18;2.00;;;;;;;;;;5093916;28;20512;-62
2022/04/01 08:18:19;;;;;;;4.82;2.50;;;;;;;;;;5094734;28;20047;-61
2022/04/01 08:20:45;;;;;;;1.83;1.60;;;;;;;;;;5088287;28;20051;-62
2022/04/01 08:23:11;;;;;;;3.65;2.40;;;;;;;;;;5083286;28;20040;-62
2022/04/01 08:25:37;;;;;;;3.88;2.15;;;;;;;;;;5092168;28;20066;-62
2022/04/01 08:28:03;;;;;;;5.00;2.47;;;;;;;;;;5091715;28;20123;-62
2022/04/01 08:30:33;;;;;;;3.75;2.58;;;;;;;;;;5087977;28;20039;-61
2022/04/01 08:32:59;;;;;;;2.58;1.95;;;;;;;;;;5092777;28;20039;-61
2022/04/01 08:35:25;;;;;;;3.70;2.58;;;;;;;;;;5086224;28;20036;-61
2022/04/01 08:37:54;;;;;;;6.13;3.08;;;;;;;;;;5096166;28;20039;-60
2022/04/01 08:40:20;;;;;;;5.30;2.58;;;;;;;;;;5093173;28;20047;-60
2022/04/01 08:42:47;;;;;;;3.85;2.50;;;;;;;;;;5088373;28;20040;-61
2022/04/01 08:45:13;;;;;;;3.72;2.38;;;;;;;;;;5084349;28;20107;-61
2022/04/01 08:47:39;;;;;;;4.03;2.83;;;;;;;;;;5084450;28;20043;-60
2022/04/01 08:50:05;;;;;;;6.85;3.08;;;;;;;;;;5091599;28;20045;-61
2022/04/01 08:52:31;;;;;;;5.72;2.83;;;;;;;;;;5094032;28;20032;-61
2022/04/01 08:55:03;;;;;;;5.07;2.80;;;;;;;;;;5086685;28;20055;-61
2022/04/01 08:57:34;;;;;;;5.18;3.13;;;;;;;;;;5087093;28;20616;-61
2022/04/01 09:00:00;;;;;;;6.20;3.13;;;;;;;;;;5093242;28;20406;-61
2022/04/01 09:02:26;;;;;;;10.80;3.17;;;;;;;;;;5093560;28;20044;-61
2022/04/01 09:05:06;;;;;;;4.15;2.97;;;;;;;;;;5088420;28;20044;-60
2022/04/01 09:07:32;;;;;;;3.78;3.05;;;;;;;;;;5087632;28;20525;-61
2022/04/01 09:10:05;;;;;;;7.60;3.83;;;;;;;;;;5063330;28;20043;-60
2022/04/01 09:12:31;;;;;;;5.20;3.65;;;;;;;;;;5089663;28;20046;-61
2022/04/01 09:14:58;;;;;;;7.40;3.78;;;;;;;;;;5088109;28;20119;-61
2022/04/01 09:17:51;;;;;;;7.45;3.88;;;;;;;;;;5091124;28;20036;-61
2022/04/01 09:20:17;;;;;;;5.30;3.33;;;;;;;;;;5072968;28;20052;-61
2022/04/01 09:22:44;;;;;;;6.68;3.92;;;;;;;;;;5095402;28;20036;-61
2022/04/01 09:25:14;;;;;;;6.80;3.40;;;;;;;;;;5104942;28;20043;-62
2022/04/01 09:27:42;;;;;;;6.57;4.25;;;;;;;;;;5074987;28;20127;-61
2022/04/01 09:30:09;;;;;;;7.35;4.03;;;;;;;;;;5108632;28;20066;-61
2022/04/01 09:32:42;;;;;;;6.82;4.00;;;;;;;;;;5098744;28;20087;-61
2022/04/01 09:35:12;;;;;;;6.22;4.35;;;;;;;;;;5096442;28;20043;-61
2022/04/01 09:37:39;;;;;;;8.02;4.47;;;;;;;;;;5085802;28;20081;-61
2022/04/01 09:40:05;;;;;;;6.45;4.32;;;;;;;;;;5098143;28;20085;-61
2022/04/01 09:42:31;;;;;;;5.13;3.70;;;;;;;;;;5094978;28;20032;-61
2022/04/01 09:45:00;;;;;;;6.53;4.30;;;;;;;;;;5091986;28;20039;-61
2022/04/01 09:47:27;;;;;;;9.82;5.00;;;;;;;;;;5092298;28;20043;-61
2022/04/01 09:49:54;;;;;;;8.45;5.00;;;;;;;;;;5078560;28;20040;-61
2022/04/01 09:52:22;;;;;;;6.03;4.30;;;;;;;;;;5082503;28;20048;-61
2022/04/01 09:54:52;;;;;;;7.80;4.88;;;;;;;;;;5085907;28;20406;-61
2022/04/01 09:57:20;;;;;;;6.38;4.32;;;;;;;;;;5090671;28;20044;-61
2022/04/01 09:59:47;;;;;;;8.05;4.47;;;;;;;;;;5092025;28;20493;-61
2022/04/01 10:02:13;;;;;;;6.72;4.35;;;;;;;;;;5089948;28;20401;-61
2022/04/01 10:04:40;;;;;;;8.63;4.35;;;;;;;;;;5092215;28;20443;-60
2022/04/01 10:07:06;;;;;;;8.98;4.97;;;;;;;;;;5087059;28;20531;-61
2022/04/01 10:09:32;;;;;;;8.13;5.03;;;;;;;;;;5090838;28;20036;-60
2022/04/01 10:12:01;;;;;;;6.57;4.50;;;;;;;;;;5093577;28;20040;-61
2022/04/01 10:14:27;;;;;;;6.40;4.78;;;;;;;;;;5091916;28;20105;-61
2022/04/01 10:16:55;;;;;;;6.15;4.60;;;;;;;;;;5090670;28;20497;-60
2022/04/01 10:19:28;;;;;;;7.00;4.93;;;;;;;;;;5089953;28;20032;-60
2022/04/01 10:21:54;;;;;;;8.13;4.93;;;;;;;;;;5090633;28;20050;-60
2022/04/01 10:24:32;;;;;;;10.95;5.63;;;;;;;;;;5101426;28;20048;-61
2022/04/01 10:27:04;;;;;;;8.30;4.80;;;;;;;;;;5097609;28;20036;-61
2022/04/01 10:29:31;;;;;;;8.20;5.82;;;;;;;;;;5090121;28;20404;-61
2022/04/01 10:32:17;;;;;;;8.15;5.45;;;;;;;;;;5091843;28;20050;-61
2022/04/01 10:34:46;;;;;;;7.50;5.03;;;;;;;;;;5094597;28;20040;-61
2022/04/01 10:37:14;;;;;;;7.22;4.60;;;;;;;;;;5104392;28;20042;-61
2022/04/01 10:39:52;;;;;;;7.15;5.30;;;;;;;;;;5094772;28;20040;-61
2022/04/01 10:42:18;;;;;;;6.65;4.70;;;;;;;;;;5091626;28;20064;-61
2022/04/01 10:44:45;;;;;;;9.30;5.75;;;;;;;;;;5102003;28;20038;-61
2022/04/01 10:47:11;;;;;;;7.85;5.00;;;;;;;;;;5079425;28;20040;-59
2022/04/01 10:52:23;;;;;;;7.40;4.80;;;;;;;;;;5099344;28;20048;-60
2022/04/01 10:54:50;;;;;;;7.00;4.65;;;;;;;;;;5088836;28;20366;-60
2022/04/01 10:57:26;;;;;;;6.72;4.95;;;;;;;;;;5095396;28;20086;-59
2022/04/01 10:59:54;;;;;;;7.40;4.13;;;;;;;;;;5095207;28;20046;-60
2022/04/01 11:02:20;;;;;;;6.50;4.43;;;;;;;;;;5094475;28;20035;-60
2022/04/01 11:04:47;;;;;;;9.85;4.15;;;;;;;;;;5101615;28;20481;-60
2022/04/01 11:07:22;;;;;;;5.43;3.80;;;;;;;;;;5099369;28;20097;-60
2022/04/01 11:09:53;;;;;;;5.35;3.50;;;;;;;;;;5101535;28;20111;-61
2022/04/01 11:12:19;;;;;;;4.68;3.70;;;;;;;;;;5074059;28;20052;-61
2022/04/01 11:17:40;;;;;;;9.02;3.67;;;;;;;;;;5099788;28;20032;-61
2022/04/01 11:20:10;;;;;;;4.47;2.97;;;;;;;;;;5091728;28;20123;-61
2022/04/01 11:22:36;;;;;;;5.22;3.20;;;;;;;;;;5097723;28;20048;-61
2022/04/01 11:25:02;;;;;;;7.63;2.65;;;;;;;;;;5089460;28;20507;-61
2022/04/01 11:27:28;;;;;;;4.72;3.05;;;;;;;;;;5090979;28;20075;-60
2022/04/01 11:30:04;;;;;;;3.88;2.78;;;;;;;;;;5094704;28;20052;-60
2022/04/01 11:32:30;;;;;;;3.30;2.60;;;;;;;;;;5078683;28;20051;-60
2022/04/01 11:34:57;;;;;;;5.78;2.70;;;;;;;;;;5074546;28;20094;-60
2022/04/01 11:37:24;;;;;;;6.25;2.90;;;;;;;;;;5074262;28;20036;-61
2022/04/01 11:39:50;;;;;;;5.55;2.50;;;;;;;;;;5081149;28;20043;-60
2022/04/01 11:42:16;;;;;;;5.53;2.72;;;;;;;;;;5102633;28;20043;-60
2022/04/01 11:44:54;;;;;;;3.38;2.28;;;;;;;;;;5105447;28;20394;-60
2022/04/01 11:47:34;;;;;;;4.40;3.05;;;;;;;;;;5098959;28;20088;-59
2022/04/01 11:50:08;;;;;;;2.95;2.30;;;;;;;;;;5090051;28;20114;-60
2022/04/01 11:52:35;;;;;;;5.40;2.83;;;;;;;;;;5093081;28;20485;-60
2022/04/01 11:55:01;;;;;;;6.78;2.50;;;;;;;;;;5091674;28;20041;-58
2022/04/01 11:57:29;;;;;;;4.32;3.00;;;;;;;;;;5116704;22;20108;-60
2022/04/01 11:59:59;;;;;;;5.35;2.92;;;;;;;;;;5114924;28;20492;-60
2022/04/01 12:02:25;;;;;;;4.15;2.50;;;;;;;;;;5114583;28;20084;-60
2022/04/01 12:04:51;;;;;;;3.83;2.40;;;;;;;;;;5104041;28;20031;-60
2022/04/01 12:10:04;;;;;;;4.97;2.15;;;;;;;;;;5091733;28;20036;-60
2022/04/01 12:12:31;;;;;;;4.50;2.58;;;;;;;;;;5092686;28;20051;-59
2022/04/01 12:14:57;;;;;;;3.45;1.98;;;;;;;;;;5094042;28;20044;-60
2022/04/01 12:17:23;;;;;;;3.35;1.48;;;;;;;;;;5091987;28;20051;-60
2022/04/01 12:19:49;;;;;;;4.43;2.35;;;;;;;;;;5094912;28;20039;-60
2022/04/01 12:22:15;;;;;;;3.95;2.42;;;;;;;;;;5088469;28;20500;-60
2022/04/01 12:24:41;;;;;;;2.42;1.70;;;;;;;;;;5089451;28;20036;-59
2022/04/01 12:27:09;;;;;;;5.53;1.70;;;;;;;;;;5092549;28;20495;-60
2022/04/01 12:29:36;;;;;;;4.65;1.90;;;;;;;;;;5093855;28;20389;-60
2022/04/01 12:32:03;;;;;;;3.67;2.13;;;;;;;;;;5091353;28;20070;-60
2022/04/01 12:34:30;;;;;;;3.47;2.22;;;;;;;;;;5087940;28;20043;-60
2022/04/01 12:37:01;;;;;;;4.22;2.35;;;;;;;;;;5092590;28;20036;-59
2022/04/01 12:39:27;;;;;;;3.83;1.85;;;;;;;;;;5092913;28;20032;-60
2022/04/01 12:41:53;;;;;;;4.85;2.00;;;;;;;;;;5090141;28;20032;-59
2022/04/01 12:44:22;;;;;;;2.53;1.92;;;;;;;;;;5089223;28;20040;-60
2022/04/01 12:46:49;;;;;;;4.63;1.85;;;;;;;;;;5090857;28;20511;-60
2022/04/01 12:49:16;;;;;;;4.13;1.60;;;;;;;;;;5094460;28;20039;-60
2022/04/01 12:51:54;;;;;;;4.25;1.98;;;;;;;;;;5093279;28;20082;-60
2022/04/01 12:54:24;;;;;;;3.40;2.00;;;;;;;;;;5093627;28;20706;-60
2022/04/01 12:56:51;;;;;;;2.70;1.90;;;;;;;;;;5091164;28;20036;-60
2022/04/01 12:59:18;;;;;;;2.63;1.83;;;;;;;;;;5090603;28;20032;-60
2022/04/01 13:01:45;;;;;;;4.60;1.80;;;;;;;;;;5092609;28;20051;-60
2022/04/01 13:04:19;;;;;;;2.85;1.85;;;;;;;;;;5092394;28;20516;-60
2022/04/01 13:07:04;;;;;;;2.83;1.80;;;;;;;;;;5093011;28;20075;-60
2022/04/01 13:09:31;;;;;;;3.42;1.38;;;;;;;;;;5097269;28;20032;-60
2022/04/01 13:11:58;;;;;;;2.85;1.58;;;;;;;;;;5092477;28;20047;-60
2022/04/01 13:14:24;;;;;;;1.80;1.70;;;;;;;;;;5092856;28;20047;-60
2022/04/01 13:16:51;;;;;;;2.45;1.42;;;;;;;;;;5091454;28;20119;-60
2022/04/01 13:19:21;;;;;;;2.35;1.83;;;;;;;;;;5090093;28;20032;-60
2022/04/01 13:21:47;;;;;;;2.85;1.77;;;;;;;;;;5093069;28;20455;-60
2022/04/01 13:24:13;;;;;;;1.42;1.30;;;;;;;;;;5099655;28;20035;-60
2022/04/01 13:26:40;;;;;;;3.40;2.03;;;;;;;;;;5092437;28;20040;-60
2022/04/01 13:29:06;;;;;;;2.25;1.48;;;;;;;;;;5095443;28;20603;-60
2022/04/01 13:31:31;;;;;;;1.63;1.40;;;;;;;;;;5092191;28;20040;-60
2022/04/01 13:33:57;;;;;;;1.90;1.48;;;;;;;;;;5092361;28;20040;-60
2022/04/01 13:36:24;;;;;;;3.17;1.70;;;;;;;;;;5090924;28;20397;-60
2022/04/01 13:38:50;;;;;;;4.60;1.90;;;;;;;;;;5087791;28;20035;-60
2022/04/01 13:41:16;;;;;;;3.63;2.03;;;;;;;;;;5086447;28;20557;-60
2022/04/01 13:43:42;;;;;;;3.28;1.63;;;;;;;;;;5090494;28;20028;-59
2022/04/01 13:46:08;;;;;;;3.47;1.60;;;;;;;;;;5090755;28;20043;-60
2022/04/01 13:48:34;;;;;;;2.78;2.05;;;;;;;;;;5089638;28;20131;-59
2022/04/01 13:51:02;;;;;;;3.90;1.90;;;;;;;;;;5088862;28;20028;-59
2022/04/01 13:53:28;;;;;;;2.75;2.08;;;;;;;;;;5087086;28;20063;-60
2022/04/01 13:55:54;;;;;;;3.25;1.70;;;;;;;;;;5088153;28;20102;-60
2022/04/01 13:58:20;;;;;;;1.75;1.40;;;;;;;;;;5090540;28;20040;-60
2022/04/01 14:00:46;;;;;;;2.15;1.73;;;;;;;;;;5086661;28;20041;-60
2022/04/01 14:03:12;;;;;;;6.22;2.20;;;;;;;;;;5086945;28;20043;-60
2022/04/01 14:05:38;;;;;;;3.65;1.75;;;;;;;;;;5090822;28;20449;-60
2022/04/01 14:08:05;;;;;;;4.03;1.83;;;;;;;;;;5089566;28;20039;-60
2022/04/01 14:10:31;;;;;;;3.22;1.73;;;;;;;;;;5087502;28;20078;-60
2022/04/01 14:12:57;;;;;;;3.88;2.05;;;;;;;;;;5088335;28;20062;-60
2022/04/01 14:15:24;;;;;;;3.97;2.22;;;;;;;;;;5085820;28;20047;-60
2022/04/01 14:17:50;;;;;;;4.57;1.63;;;;;;;;;;5080195;28;20528;-60
2022/04/01 14:20:16;;;;;;;2.45;1.70;;;;;;;;;;5085667;28;20036;-60
2022/04/01 14:22:42;;;;;;;2.97;1.98;;;;;;;;;;5087201;28;20047;-60
2022/04/01 14:25:09;;;;;;;4.15;2.13;;;;;;;;;;5086900;28;20086;-60
2022/04/01 14:27:35;;;;;;;3.60;2.20;;;;;;;;;;5086619;28;20044;-60
2022/04/01 14:30:22;;;;;;;3.53;2.13;;;;;;;;;;5093349;28;20047;-60
2022/04/01 14:32:49;;;;;;;4.30;1.85;;;;;;;;;;5082638;28;20050;-60
2022/04/01 14:35:15;;;;;;;4.68;2.08;;;;;;;;;;5086029;28;20402;-61
2022/04/01 14:37:41;;;;;;;3.90;2.05;;;;;;;;;;5084522;28;20371;-60
2022/04/01 14:40:08;;;;;;;3.65;1.83;;;;;;;;;;5086512;28;20036;-61
2022/04/01 14:42:34;;;;;;;4.90;1.98;;;;;;;;;;5082551;28;20576;-60
2022/04/01 14:45:01;;;;;;;3.83;2.33;;;;;;;;;;5085273;28;20169;-60
2022/04/01 14:47:28;;;;;;;5.53;2.30;;;;;;;;;;5079120;28;20046;-60
2022/04/01 14:49:54;;;;;;;3.15;1.65;;;;;;;;;;5088610;28;20465;-61
2022/04/01 14:52:20;;;;;;;3.38;1.60;;;;;;;;;;5083849;28;20063;-61
2022/04/01 14:54:46;;;;;;;2.65;1.85;;;;;;;;;;5085657;28;20605;-60
2022/04/01 14:57:12;;;;;;;5.03;1.98;;;;;;;;;;5084303;28;20395;-61
2022/04/01 14:59:38;;;;;;;6.97;1.88;;;;;;;;;;5084199;28;20063;-61
2022/04/01 15:02:04;;;;;;;3.50;1.90;;;;;;;;;;5083926;28;20039;-60
2022/04/01 15:04:30;;;;;;;3.40;1.70;;;;;;;;;;5087475;28;20032;-60